sensor_id;sensor_type;location;lat;lon;timestamp;temperature;humidity
32097;DHT22;18610;49.916;8.284;2022-12-17T00:00:00;-5.00;99.90
32097;DHT22;18610;49.916;8.284;2022-12-17T00:02:45;-5.00;99.90
32097;DHT22;18610;49.916;8.284;2022-12-17T00:05:27;-5.10;99.90
32097;DHT22;18610;49.916;8.284;2022-12-17T00:08:11;-5.10;99.90
32097;DHT22;18610;49.916;8.284;2022-12-17T00:10:56;-5.10;99.90
32097;DHT22;18610;49.916;8.284;2022-12-17T00:13:41;-5.20;99.90
32097;DHT22;18610;49.916;8.284;2022-12-17T00:16:25;-5.30;99.90
32097;DHT22;18610;49.916;8.284;2022-12-17T00:19:09;-5.30;99.90
32097;DHT22;18610;49.916;8.284;2022-12-17T00:22:09;-5.30;99.90
32097;DHT22;18610;49.916;8.284;2022-12-17T00:24:53;-5.30;99.90
32097;DHT22;18610;49.916;8.284;2022-12-17T00:27:38;-5.30;99.90
32097;DHT22;18610;49.916;8.284;2022-12-17T00:30:23;-5.30;99.90
32097;DHT22;18610;49.916;8.284;2022-12-17T00:33:07;-5.40;99.90
32097;DHT22;18610;49.916;8.284;2022-12-17T00:35:52;-5.40;99.90
32097;DHT22;18610;49.916;8.284;2022-12-17T00:38:39;-5.50;99.90
32097;DHT22;18610;49.916;8.284;2022-12-17T00:41:24;-5.50;99.90
32097;DHT22;18610;49.916;8.284;2022-12-17T00:44:08;-5.50;99.90
32097;DHT22;18610;49.916;8.284;2022-12-17T00:46:52;-5.60;99.90
32097;DHT22;18610;49.916;8.284;2022-12-17T00:49:36;-5.70;99.90
32097;DHT22;18610;49.916;8.284;2022-12-17T00:52:21;-5.70;99.90
32097;DHT22;18610;49.916;8.284;2022-12-17T00:55:07;-5.70;99.90
32097;DHT22;18610;49.916;8.284;2022-12-17T00:57:52;-5.70;99.90
32097;DHT22;18610;49.916;8.284;2022-12-17T01:00:38;-5.70;99.90
32097;DHT22;18610;49.916;8.284;2022-12-17T01:03:22;-5.70;99.90
32097;DHT22;18610;49.916;8.284;2022-12-17T01:06:07;-5.80;99.90
32097;DHT22;18610;49.916;8.284;2022-12-17T01:08:51;-5.80;99.90
32097;DHT22;18610;49.916;8.284;2022-12-17T01:11:37;-5.80;99.90
32097;DHT22;18610;49.916;8.284;2022-12-17T01:14:21;-5.80;99.90
32097;DHT22;18610;49.916;8.284;2022-12-17T01:17:06;-5.90;99.90
32097;DHT22;18610;49.916;8.284;2022-12-17T01:19:50;-5.90;99.90
32097;DHT22;18610;49.916;8.284;2022-12-17T01:22:34;-5.90;99.90
32097;DHT22;18610;49.916;8.284;2022-12-17T01:25:19;-5.90;99.90
32097;DHT22;18610;49.916;8.284;2022-12-17T01:28:05;-5.90;99.90
32097;DHT22;18610;49.916;8.284;2022-12-17T01:30:52;-5.90;99.90
32097;DHT22;18610;49.916;8.284;2022-12-17T01:33:36;-6.00;99.90
32097;DHT22;18610;49.916;8.284;2022-12-17T01:36:20;-6.00;99.90
32097;DHT22;18610;49.916;8.284;2022-12-17T01:39:05;-5.90;99.90
32097;DHT22;18610;49.916;8.284;2022-12-17T01:41:49;-6.00;99.90
32097;DHT22;18610;49.916;8.284;2022-12-17T01:44:45;-6.00;99.90
32097;DHT22;18610;49.916;8.284;2022-12-17T01:47:34;-6.00;99.90
32097;DHT22;18610;49.916;8.284;2022-12-17T01:50:20;-6.00;99.90
32097;DHT22;18610;49.916;8.284;2022-12-17T01:53:07;-5.90;99.90
32097;DHT22;18610;49.916;8.284;2022-12-17T01:55:53;-6.00;99.90
32097;DHT22;18610;49.916;8.284;2022-12-17T01:58:38;-6.10;99.90
32097;DHT22;18610;49.916;8.284;2022-12-17T02:01:25;-6.00;99.90
32097;DHT22;18610;49.916;8.284;2022-12-17T02:04:10;-6.10;99.90
32097;DHT22;18610;49.916;8.284;2022-12-17T02:07:05;-6.10;99.90
32097;DHT22;18610;49.916;8.284;2022-12-17T02:09:58;-6.20;99.90
32097;DHT22;18610;49.916;8.284;2022-12-17T02:12:47;-6.10;99.90
32097;DHT22;18610;49.916;8.284;2022-12-17T02:15:39;-6.10;99.90
32097;DHT22;18610;49.916;8.284;2022-12-17T02:18:33;-6.20;99.90
32097;DHT22;18610;49.916;8.284;2022-12-17T02:21:21;-6.10;99.90
32097;DHT22;18610;49.916;8.284;2022-12-17T02:24:10;-6.20;99.90
32097;DHT22;18610;49.916;8.284;2022-12-17T02:26:58;-6.20;99.90
32097;DHT22;18610;49.916;8.284;2022-12-17T02:29:48;-6.20;99.90
32097;DHT22;18610;49.916;8.284;2022-12-17T02:32:35;-6.20;99.90
32097;DHT22;18610;49.916;8.284;2022-12-17T02:35:24;-6.20;99.90
32097;DHT22;18610;49.916;8.284;2022-12-17T02:38:17;-6.20;99.90
32097;DHT22;18610;49.916;8.284;2022-12-17T02:41:02;-6.20;99.90
32097;DHT22;18610;49.916;8.284;2022-12-17T02:43:48;-6.30;99.90
32097;DHT22;18610;49.916;8.284;2022-12-17T02:46:33;-6.30;99.90
32097;DHT22;18610;49.916;8.284;2022-12-17T02:49:26;-6.20;99.90
32097;DHT22;18610;49.916;8.284;2022-12-17T02:52:11;-6.10;99.90
32097;DHT22;18610;49.916;8.284;2022-12-17T02:54:56;-6.10;99.90
32097;DHT22;18610;49.916;8.284;2022-12-17T02:57:41;-6.10;99.90
32097;DHT22;18610;49.916;8.284;2022-12-17T03:00:26;-6.10;99.90
32097;DHT22;18610;49.916;8.284;2022-12-17T03:03:11;-6.10;99.90
32097;DHT22;18610;49.916;8.284;2022-12-17T03:05:55;-6.10;99.90
32097;DHT22;18610;49.916;8.284;2022-12-17T03:08:42;-6.10;99.90
32097;DHT22;18610;49.916;8.284;2022-12-17T03:11:27;-6.10;99.90
32097;DHT22;18610;49.916;8.284;2022-12-17T03:14:12;-6.10;99.90
32097;DHT22;18610;49.916;8.284;2022-12-17T03:16:57;-6.20;99.90
32097;DHT22;18610;49.916;8.284;2022-12-17T03:19:41;-6.20;99.90
32097;DHT22;18610;49.916;8.284;2022-12-17T03:22:29;-6.30;99.90
32097;DHT22;18610;49.916;8.284;2022-12-17T03:25:14;-6.20;99.90
32097;DHT22;18610;49.916;8.284;2022-12-17T03:28:02;-6.30;99.90
32097;DHT22;18610;49.916;8.284;2022-12-17T03:30:47;-6.30;99.90
32097;DHT22;18610;49.916;8.284;2022-12-17T03:33:33;-6.30;99.90
32097;DHT22;18610;49.916;8.284;2022-12-17T03:36:17;-6.40;99.90
32097;DHT22;18610;49.916;8.284;2022-12-17T03:39:02;-6.40;99.90
32097;DHT22;18610;49.916;8.284;2022-12-17T03:41:47;-6.30;99.90
32097;DHT22;18610;49.916;8.284;2022-12-17T03:44:31;-6.40;99.90
32097;DHT22;18610;49.916;8.284;2022-12-17T03:47:15;-6.30;99.90
32097;DHT22;18610;49.916;8.284;2022-12-17T03:50:01;-6.30;99.90
32097;DHT22;18610;49.916;8.284;2022-12-17T03:52:45;-6.30;99.90
32097;DHT22;18610;49.916;8.284;2022-12-17T03:55:29;-6.40;99.90
32097;DHT22;18610;49.916;8.284;2022-12-17T03:58:14;-6.40;99.90
32097;DHT22;18610;49.916;8.284;2022-12-17T04:00:58;-6.50;99.90
32097;DHT22;18610;49.916;8.284;2022-12-17T04:03:43;-6.60;99.90
32097;DHT22;18610;49.916;8.284;2022-12-17T04:06:29;-6.60;99.90
32097;DHT22;18610;49.916;8.284;2022-12-17T04:09:13;-6.60;99.90
32097;DHT22;18610;49.916;8.284;2022-12-17T04:11:58;-6.60;99.90
32097;DHT22;18610;49.916;8.284;2022-12-17T04:14:42;-6.70;99.90
32097;DHT22;18610;49.916;8.284;2022-12-17T04:17:27;-6.60;99.90
32097;DHT22;18610;49.916;8.284;2022-12-17T04:20:11;-6.60;99.90
32097;DHT22;18610;49.916;8.284;2022-12-17T04:22:57;-6.70;99.90
32097;DHT22;18610;49.916;8.284;2022-12-17T04:25:41;-6.60;99.90
32097;DHT22;18610;49.916;8.284;2022-12-17T04:28:26;-6.70;99.90
32097;DHT22;18610;49.916;8.284;2022-12-17T04:31:10;-6.70;99.90
32097;DHT22;18610;49.916;8.284;2022-12-17T04:33:54;-6.70;99.90
32097;DHT22;18610;49.916;8.284;2022-12-17T04:36:39;-6.70;99.90
32097;DHT22;18610;49.916;8.284;2022-12-17T04:39:25;-6.60;99.90
32097;DHT22;18610;49.916;8.284;2022-12-17T04:42:10;-6.60;99.90
32097;DHT22;18610;49.916;8.284;2022-12-17T04:45:09;-6.70;99.90
32097;DHT22;18610;49.916;8.284;2022-12-17T04:48:00;-6.70;99.90
32097;DHT22;18610;49.916;8.284;2022-12-17T04:50:44;-6.70;99.90
32097;DHT22;18610;49.916;8.284;2022-12-17T04:53:28;-6.70;99.90
32097;DHT22;18610;49.916;8.284;2022-12-17T04:56:14;-6.70;99.90
32097;DHT22;18610;49.916;8.284;2022-12-17T04:58:58;-6.70;99.90
32097;DHT22;18610;49.916;8.284;2022-12-17T05:01:43;-6.70;99.90
32097;DHT22;18610;49.916;8.284;2022-12-17T05:04:27;-6.70;99.90
32097;DHT22;18610;49.916;8.284;2022-12-17T05:07:12;-6.70;99.90
32097;DHT22;18610;49.916;8.284;2022-12-17T05:09:56;-6.70;99.90
32097;DHT22;18610;49.916;8.284;2022-12-17T05:12:42;-6.70;99.90
32097;DHT22;18610;49.916;8.284;2022-12-17T05:15:26;-6.70;99.90
32097;DHT22;18610;49.916;8.284;2022-12-17T05:18:19;-6.70;99.90
32097;DHT22;18610;49.916;8.284;2022-12-17T05:21:03;-6.60;99.90
32097;DHT22;18610;49.916;8.284;2022-12-17T05:23:48;-6.60;99.90
32097;DHT22;18610;49.916;8.284;2022-12-17T05:26:32;-6.60;99.90
32097;DHT22;18610;49.916;8.284;2022-12-17T05:29:19;-6.50;99.90
32097;DHT22;18610;49.916;8.284;2022-12-17T05:32:03;-6.50;99.90
32097;DHT22;18610;49.916;8.284;2022-12-17T05:34:48;-6.50;99.90
32097;DHT22;18610;49.916;8.284;2022-12-17T05:37:32;-6.50;99.90
32097;DHT22;18610;49.916;8.284;2022-12-17T05:40:17;-6.50;99.90
32097;DHT22;18610;49.916;8.284;2022-12-17T05:43:03;-6.50;99.90
32097;DHT22;18610;49.916;8.284;2022-12-17T05:45:50;-6.60;99.90
32097;DHT22;18610;49.916;8.284;2022-12-17T05:48:34;-6.60;99.90
32097;DHT22;18610;49.916;8.284;2022-12-17T05:51:20;-6.50;99.90
32097;DHT22;18610;49.916;8.284;2022-12-17T05:54:05;-6.40;99.90
32097;DHT22;18610;49.916;8.284;2022-12-17T05:56:50;-6.40;99.90
32097;DHT22;18610;49.916;8.284;2022-12-17T05:59:43;-6.40;99.90
32097;DHT22;18610;49.916;8.284;2022-12-17T06:02:29;-6.40;99.90
32097;DHT22;18610;49.916;8.284;2022-12-17T06:05:14;-6.30;99.90
32097;DHT22;18610;49.916;8.284;2022-12-17T06:08:02;-6.20;99.90
32097;DHT22;18610;49.916;8.284;2022-12-17T06:10:47;-6.10;99.90
32097;DHT22;18610;49.916;8.284;2022-12-17T06:13:31;-6.10;99.90
32097;DHT22;18610;49.916;8.284;2022-12-17T06:16:16;-6.10;99.90
32097;DHT22;18610;49.916;8.284;2022-12-17T06:19:01;-6.00;99.90
32097;DHT22;18610;49.916;8.284;2022-12-17T06:21:46;-6.00;99.90
32097;DHT22;18610;49.916;8.284;2022-12-17T06:24:30;-5.90;99.90
32097;DHT22;18610;49.916;8.284;2022-12-17T06:27:14;-5.90;99.90
32097;DHT22;18610;49.916;8.284;2022-12-17T06:29:58;-5.90;99.90
32097;DHT22;18610;49.916;8.284;2022-12-17T06:32:43;-5.80;99.90
32097;DHT22;18610;49.916;8.284;2022-12-17T06:35:29;-5.70;99.90
32097;DHT22;18610;49.916;8.284;2022-12-17T06:38:13;-5.60;99.90
32097;DHT22;18610;49.916;8.284;2022-12-17T06:40:59;-5.50;99.90
32097;DHT22;18610;49.916;8.284;2022-12-17T06:43:43;-5.50;99.90
32097;DHT22;18610;49.916;8.284;2022-12-17T06:46:28;-5.50;99.90
32097;DHT22;18610;49.916;8.284;2022-12-17T06:49:12;-5.60;99.90
32097;DHT22;18610;49.916;8.284;2022-12-17T06:51:58;-5.50;99.90
32097;DHT22;18610;49.916;8.284;2022-12-17T06:54:42;-5.50;99.90
32097;DHT22;18610;49.916;8.284;2022-12-17T06:57:26;-5.50;99.90
32097;DHT22;18610;49.916;8.284;2022-12-17T07:00:14;-5.40;99.90
32097;DHT22;18610;49.916;8.284;2022-12-17T07:02:58;-5.40;99.90
32097;DHT22;18610;49.916;8.284;2022-12-17T07:05:42;-5.30;99.90
32097;DHT22;18610;49.916;8.284;2022-12-17T07:08:28;-5.20;99.90
32097;DHT22;18610;49.916;8.284;2022-12-17T07:11:14;-5.10;99.90
32097;DHT22;18610;49.916;8.284;2022-12-17T07:13:59;-5.00;99.90
32097;DHT22;18610;49.916;8.284;2022-12-17T07:16:43;-4.90;99.90
32097;DHT22;18610;49.916;8.284;2022-12-17T07:19:28;-4.80;99.90
32097;DHT22;18610;49.916;8.284;2022-12-17T07:22:12;-4.70;99.90
32097;DHT22;18610;49.916;8.284;2022-12-17T07:24:58;-4.70;99.90
32097;DHT22;18610;49.916;8.284;2022-12-17T07:27:39;-4.60;99.90
32097;DHT22;18610;49.916;8.284;2022-12-17T07:30:23;-4.50;99.90
32097;DHT22;18610;49.916;8.284;2022-12-17T07:33:08;-4.40;99.90
32097;DHT22;18610;49.916;8.284;2022-12-17T07:35:53;-4.30;99.90
32097;DHT22;18610;49.916;8.284;2022-12-17T07:38:34;-4.20;99.90
32097;DHT22;18610;49.916;8.284;2022-12-17T07:41:20;-4.10;99.90
32097;DHT22;18610;49.916;8.284;2022-12-17T07:44:04;-4.00;99.90
32097;DHT22;18610;49.916;8.284;2022-12-17T07:46:49;-3.90;99.90
32097;DHT22;18610;49.916;8.284;2022-12-17T07:49:34;-3.80;99.90
32097;DHT22;18610;49.916;8.284;2022-12-17T07:52:19;-3.70;99.90
32097;DHT22;18610;49.916;8.284;2022-12-17T07:55:03;-3.70;99.90
32097;DHT22;18610;49.916;8.284;2022-12-17T07:57:58;-3.60;99.90
32097;DHT22;18610;49.916;8.284;2022-12-17T08:00:42;-3.50;99.90
32097;DHT22;18610;49.916;8.284;2022-12-17T08:03:26;-3.50;99.90
32097;DHT22;18610;49.916;8.284;2022-12-17T08:06:11;-3.50;99.90
32097;DHT22;18610;49.916;8.284;2022-12-17T08:08:55;-3.40;99.90
32097;DHT22;18610;49.916;8.284;2022-12-17T08:11:39;-3.40;99.90
32097;DHT22;18610;49.916;8.284;2022-12-17T08:14:25;-3.30;99.90
32097;DHT22;18610;49.916;8.284;2022-12-17T08:17:10;-3.30;99.90
32097;DHT22;18610;49.916;8.284;2022-12-17T08:19:54;-3.20;99.90
32097;DHT22;18610;49.916;8.284;2022-12-17T08:22:39;-3.20;99.90
32097;DHT22;18610;49.916;8.284;2022-12-17T08:25:23;-3.10;99.90
32097;DHT22;18610;49.916;8.284;2022-12-17T08:28:08;-3.10;99.90
32097;DHT22;18610;49.916;8.284;2022-12-17T08:30:54;-3.10;99.90
32097;DHT22;18610;49.916;8.284;2022-12-17T08:33:38;-3.10;99.90
32097;DHT22;18610;49.916;8.284;2022-12-17T08:36:22;-3.10;99.90
32097;DHT22;18610;49.916;8.284;2022-12-17T08:39:06;-3.10;99.90
32097;DHT22;18610;49.916;8.284;2022-12-17T08:41:51;-3.00;99.90
32097;DHT22;18610;49.916;8.284;2022-12-17T08:44:35;-3.00;99.90
32097;DHT22;18610;49.916;8.284;2022-12-17T08:47:21;-3.00;99.90
32097;DHT22;18610;49.916;8.284;2022-12-17T08:50:07;-3.00;99.90
32097;DHT22;18610;49.916;8.284;2022-12-17T08:52:56;-3.00;99.90
32097;DHT22;18610;49.916;8.284;2022-12-17T08:55:41;-3.00;99.90
32097;DHT22;18610;49.916;8.284;2022-12-17T08:58:25;-3.00;99.90
32097;DHT22;18610;49.916;8.284;2022-12-17T09:01:09;-2.90;99.90
32097;DHT22;18610;49.916;8.284;2022-12-17T09:03:55;-2.90;99.90
32097;DHT22;18610;49.916;8.284;2022-12-17T09:06:40;-2.90;99.90
32097;DHT22;18610;49.916;8.284;2022-12-17T09:09:24;-2.90;99.90
32097;DHT22;18610;49.916;8.284;2022-12-17T09:12:08;-2.90;99.90
32097;DHT22;18610;49.916;8.284;2022-12-17T09:14:53;-2.90;99.90
32097;DHT22;18610;49.916;8.284;2022-12-17T09:17:37;-2.90;99.90
32097;DHT22;18610;49.916;8.284;2022-12-17T09:20:23;-2.80;99.90
32097;DHT22;18610;49.916;8.284;2022-12-17T09:23:07;-2.80;99.90
32097;DHT22;18610;49.916;8.284;2022-12-17T09:25:52;-2.80;99.90
32097;DHT22;18610;49.916;8.284;2022-12-17T09:28:36;-2.90;99.90
32097;DHT22;18610;49.916;8.284;2022-12-17T09:31:20;-2.90;99.90
32097;DHT22;18610;49.916;8.284;2022-12-17T09:34:04;-2.90;99.90
32097;DHT22;18610;49.916;8.284;2022-12-17T09:36:50;-2.90;99.90
32097;DHT22;18610;49.916;8.284;2022-12-17T09:39:35;-2.90;99.90
32097;DHT22;18610;49.916;8.284;2022-12-17T09:42:22;-2.90;99.90
32097;DHT22;18610;49.916;8.284;2022-12-17T09:45:13;-2.80;99.90
32097;DHT22;18610;49.916;8.284;2022-12-17T09:48:05;-2.80;99.90
32097;DHT22;18610;49.916;8.284;2022-12-17T09:50:51;-2.70;99.90
32097;DHT22;18610;49.916;8.284;2022-12-17T09:53:41;-2.70;99.90
32097;DHT22;18610;49.916;8.284;2022-12-17T09:56:28;-2.70;99.90
32097;DHT22;18610;49.916;8.284;2022-12-17T09:59:19;-2.70;99.90
32097;DHT22;18610;49.916;8.284;2022-12-17T10:02:11;-2.60;99.90
32097;DHT22;18610;49.916;8.284;2022-12-17T10:04:56;-2.60;99.90
32097;DHT22;18610;49.916;8.284;2022-12-17T10:07:42;-2.60;99.90
32097;DHT22;18610;49.916;8.284;2022-12-17T10:10:31;-2.60;99.90
32097;DHT22;18610;49.916;8.284;2022-12-17T10:13:18;-2.50;99.90
32097;DHT22;18610;49.916;8.284;2022-12-17T10:16:19;-2.50;99.90
32097;DHT22;18610;49.916;8.284;2022-12-17T10:19:04;-2.50;99.90
32097;DHT22;18610;49.916;8.284;2022-12-17T10:21:49;-2.50;99.90
32097;DHT22;18610;49.916;8.284;2022-12-17T10:24:43;-2.60;99.90
32097;DHT22;18610;49.916;8.284;2022-12-17T10:27:28;-2.50;99.90
32097;DHT22;18610;49.916;8.284;2022-12-17T10:30:14;-2.50;99.90
32097;DHT22;18610;49.916;8.284;2022-12-17T10:32:58;-2.40;99.90
32097;DHT22;18610;49.916;8.284;2022-12-17T10:35:47;-2.40;99.90
32097;DHT22;18610;49.916;8.284;2022-12-17T10:38:31;-2.40;99.90
32097;DHT22;18610;49.916;8.284;2022-12-17T10:41:19;-2.40;99.90
32097;DHT22;18610;49.916;8.284;2022-12-17T10:44:24;-2.50;99.90
32097;DHT22;18610;49.916;8.284;2022-12-17T10:47:11;-2.50;99.90
32097;DHT22;18610;49.916;8.284;2022-12-17T10:49:57;-2.40;99.90
32097;DHT22;18610;49.916;8.284;2022-12-17T10:52:50;-2.40;99.90
32097;DHT22;18610;49.916;8.284;2022-12-17T10:55:35;-2.50;99.90
32097;DHT22;18610;49.916;8.284;2022-12-17T10:58:21;-2.60;99.90
32097;DHT22;18610;49.916;8.284;2022-12-17T11:01:10;-2.70;99.90
32097;DHT22;18610;49.916;8.284;2022-12-17T11:03:56;-2.80;99.90
32097;DHT22;18610;49.916;8.284;2022-12-17T11:06:44;-2.80;99.90
32097;DHT22;18610;49.916;8.284;2022-12-17T11:09:38;-2.70;99.90
32097;DHT22;18610;49.916;8.284;2022-12-17T11:12:28;-2.60;99.90
32097;DHT22;18610;49.916;8.284;2022-12-17T11:15:19;-2.60;99.90
32097;DHT22;18610;49.916;8.284;2022-12-17T11:18:11;-2.50;99.90
32097;DHT22;18610;49.916;8.284;2022-12-17T11:21:03;-2.50;99.90
32097;DHT22;18610;49.916;8.284;2022-12-17T11:23:50;-2.40;99.90
32097;DHT22;18610;49.916;8.284;2022-12-17T11:26:37;-2.30;99.90
32097;DHT22;18610;49.916;8.284;2022-12-17T11:29:22;-2.30;99.90
32097;DHT22;18610;49.916;8.284;2022-12-17T11:32:31;-2.30;99.90
32097;DHT22;18610;49.916;8.284;2022-12-17T11:35:22;-2.30;99.90
32097;DHT22;18610;49.916;8.284;2022-12-17T11:38:22;-2.20;99.90
32097;DHT22;18610;49.916;8.284;2022-12-17T11:41:14;-2.20;99.90
32097;DHT22;18610;49.916;8.284;2022-12-17T11:44:03;-2.20;99.90
32097;DHT22;18610;49.916;8.284;2022-12-17T11:46:58;-2.20;99.90
32097;DHT22;18610;49.916;8.284;2022-12-17T11:49:51;-2.20;99.90
32097;DHT22;18610;49.916;8.284;2022-12-17T11:52:44;-2.20;99.90
32097;DHT22;18610;49.916;8.284;2022-12-17T11:55:35;-2.20;99.90
32097;DHT22;18610;49.916;8.284;2022-12-17T11:58:25;-2.20;99.90
32097;DHT22;18610;49.916;8.284;2022-12-17T12:01:18;-2.20;99.90
32097;DHT22;18610;49.916;8.284;2022-12-17T12:04:13;-2.20;99.90
32097;DHT22;18610;49.916;8.284;2022-12-17T12:07:04;-2.20;99.90
32097;DHT22;18610;49.916;8.284;2022-12-17T12:09:57;-2.20;99.90
32097;DHT22;18610;49.916;8.284;2022-12-17T12:12:54;-2.30;99.90
32097;DHT22;18610;49.916;8.284;2022-12-17T12:15:47;-2.50;99.90
32097;DHT22;18610;49.916;8.284;2022-12-17T12:18:45;-2.50;99.90
32097;DHT22;18610;49.916;8.284;2022-12-17T12:21:39;-2.50;99.90
32097;DHT22;18610;49.916;8.284;2022-12-17T12:24:40;-2.40;99.90
32097;DHT22;18610;49.916;8.284;2022-12-17T12:27:36;-2.40;99.90
32097;DHT22;18610;49.916;8.284;2022-12-17T12:30:28;-2.40;99.90
32097;DHT22;18610;49.916;8.284;2022-12-17T12:33:23;-2.30;99.90
32097;DHT22;18610;49.916;8.284;2022-12-17T12:36:11;-2.30;99.90
32097;DHT22;18610;49.916;8.284;2022-12-17T12:38:58;-2.20;99.90
32097;DHT22;18610;49.916;8.284;2022-12-17T12:41:48;-2.20;99.90
32097;DHT22;18610;49.916;8.284;2022-12-17T12:44:44;-2.20;99.90
32097;DHT22;18610;49.916;8.284;2022-12-17T12:47:38;-2.10;99.90
32097;DHT22;18610;49.916;8.284;2022-12-17T12:50:32;-2.20;99.90
32097;DHT22;18610;49.916;8.284;2022-12-17T12:53:20;-2.10;99.90
32097;DHT22;18610;49.916;8.284;2022-12-17T12:56:24;-2.10;99.90
32097;DHT22;18610;49.916;8.284;2022-12-17T12:59:10;-2.20;99.90
32097;DHT22;18610;49.916;8.284;2022-12-17T13:01:56;-2.20;99.90
32097;DHT22;18610;49.916;8.284;2022-12-17T13:04:41;-2.30;99.90
32097;DHT22;18610;49.916;8.284;2022-12-17T13:07:27;-2.40;99.90
32097;DHT22;18610;49.916;8.284;2022-12-17T13:09:56;-2.40;99.90
32097;DHT22;18610;49.916;8.284;2022-12-17T13:12:28;-2.40;99.90
32097;DHT22;18610;49.916;8.284;2022-12-17T13:15:14;-2.30;99.90
32097;DHT22;18610;49.916;8.284;2022-12-17T13:17:53;-2.30;99.90
32097;DHT22;18610;49.916;8.284;2022-12-17T13:20:27;-2.30;99.90
32097;DHT22;18610;49.916;8.284;2022-12-17T13:23:12;-2.20;99.90
32097;DHT22;18610;49.916;8.284;2022-12-17T13:25:40;-2.10;99.90
32097;DHT22;18610;49.916;8.284;2022-12-17T13:28:25;-2.10;99.90
32097;DHT22;18610;49.916;8.284;2022-12-17T13:31:15;-2.10;99.90
32097;DHT22;18610;49.916;8.284;2022-12-17T13:33:49;-2.10;99.90
32097;DHT22;18610;49.916;8.284;2022-12-17T13:36:25;-2.10;99.90
32097;DHT22;18610;49.916;8.284;2022-12-17T13:39:01;-2.10;99.90
32097;DHT22;18610;49.916;8.284;2022-12-17T13:41:30;-2.20;99.90
32097;DHT22;18610;49.916;8.284;2022-12-17T13:44:00;-2.20;99.90
32097;DHT22;18610;49.916;8.284;2022-12-17T13:46:28;-2.20;99.90
32097;DHT22;18610;49.916;8.284;2022-12-17T13:49:04;-2.20;99.90
32097;DHT22;18610;49.916;8.284;2022-12-17T13:51:33;-2.20;99.90
32097;DHT22;18610;49.916;8.284;2022-12-17T13:54:02;-2.20;99.90
32097;DHT22;18610;49.916;8.284;2022-12-17T13:56:31;-2.20;99.90
32097;DHT22;18610;49.916;8.284;2022-12-17T13:59:00;-2.30;99.90
32097;DHT22;18610;49.916;8.284;2022-12-17T14:01:27;-2.20;99.90
32097;DHT22;18610;49.916;8.284;2022-12-17T14:03:55;-2.20;99.90
32097;DHT22;18610;49.916;8.284;2022-12-17T14:06:28;-2.20;99.90
32097;DHT22;18610;49.916;8.284;2022-12-17T14:08:58;-2.20;99.90
32097;DHT22;18610;49.916;8.284;2022-12-17T14:11:25;-2.10;99.90
32097;DHT22;18610;49.916;8.284;2022-12-17T14:14:30;-2.10;99.90
32097;DHT22;18610;49.916;8.284;2022-12-17T14:16:58;-2.10;99.90
32097;DHT22;18610;49.916;8.284;2022-12-17T14:19:25;-2.10;99.90
32097;DHT22;18610;49.916;8.284;2022-12-17T14:21:54;-2.10;99.90
32097;DHT22;18610;49.916;8.284;2022-12-17T14:24:23;-2.10;99.90
32097;DHT22;18610;49.916;8.284;2022-12-17T14:26:55;-2.10;99.90
32097;DHT22;18610;49.916;8.284;2022-12-17T14:29:23;-2.10;99.90
32097;DHT22;18610;49.916;8.284;2022-12-17T14:31:51;-2.10;99.90
32097;DHT22;18610;49.916;8.284;2022-12-17T14:34:19;-2.10;99.90
32097;DHT22;18610;49.916;8.284;2022-12-17T14:36:46;-2.10;99.90
32097;DHT22;18610;49.916;8.284;2022-12-17T14:39:22;-2.10;99.90
32097;DHT22;18610;49.916;8.284;2022-12-17T14:41:50;-2.10;99.90
32097;DHT22;18610;49.916;8.284;2022-12-17T14:44:39;-2.10;99.90
32097;DHT22;18610;49.916;8.284;2022-12-17T14:47:14;-2.10;99.90
32097;DHT22;18610;49.916;8.284;2022-12-17T14:49:59;-2.10;99.90
32097;DHT22;18610;49.916;8.284;2022-12-17T14:52:40;-2.10;99.90
32097;DHT22;18610;49.916;8.284;2022-12-17T14:55:29;-2.20;99.90
32097;DHT22;18610;49.916;8.284;2022-12-17T14:58:18;-2.20;99.90
32097;DHT22;18610;49.916;8.284;2022-12-17T15:00:48;-2.20;99.90
32097;DHT22;18610;49.916;8.284;2022-12-17T15:03:19;-2.30;99.90
32097;DHT22;18610;49.916;8.284;2022-12-17T15:05:50;-2.40;99.90
32097;DHT22;18610;49.916;8.284;2022-12-17T15:08:17;-2.40;99.90
32097;DHT22;18610;49.916;8.284;2022-12-17T15:10:45;-2.50;99.90
32097;DHT22;18610;49.916;8.284;2022-12-17T15:13:12;-2.40;99.90
32097;DHT22;18610;49.916;8.284;2022-12-17T15:15:39;-2.40;99.90
32097;DHT22;18610;49.916;8.284;2022-12-17T15:18:06;-2.40;99.90
32097;DHT22;18610;49.916;8.284;2022-12-17T15:20:33;-2.30;99.90
32097;DHT22;18610;49.916;8.284;2022-12-17T15:23:00;-2.30;99.90
32097;DHT22;18610;49.916;8.284;2022-12-17T15:25:27;-2.30;99.90
32097;DHT22;18610;49.916;8.284;2022-12-17T15:27:55;-2.30;99.90
32097;DHT22;18610;49.916;8.284;2022-12-17T15:30:22;-2.30;99.90
32097;DHT22;18610;49.916;8.284;2022-12-17T15:32:49;-2.30;99.90
32097;DHT22;18610;49.916;8.284;2022-12-17T15:35:15;-2.40;99.90
32097;DHT22;18610;49.916;8.284;2022-12-17T15:37:42;-2.40;99.90
32097;DHT22;18610;49.916;8.284;2022-12-17T15:40:10;-2.30;99.90
32097;DHT22;18610;49.916;8.284;2022-12-17T15:42:37;-2.40;99.90
32097;DHT22;18610;49.916;8.284;2022-12-17T15:45:25;-2.40;99.90
32097;DHT22;18610;49.916;8.284;2022-12-17T15:47:52;-2.40;99.90
32097;DHT22;18610;49.916;8.284;2022-12-17T15:50:19;-2.40;99.90
32097;DHT22;18610;49.916;8.284;2022-12-17T15:52:46;-2.40;99.90
32097;DHT22;18610;49.916;8.284;2022-12-17T15:55:13;-2.40;99.90
32097;DHT22;18610;49.916;8.284;2022-12-17T15:57:42;-2.40;99.90
32097;DHT22;18610;49.916;8.284;2022-12-17T16:00:09;-2.40;99.90
32097;DHT22;18610;49.916;8.284;2022-12-17T16:02:38;-2.40;99.90
32097;DHT22;18610;49.916;8.284;2022-12-17T16:05:05;-2.40;99.90
32097;DHT22;18610;49.916;8.284;2022-12-17T16:07:32;-2.40;99.90
32097;DHT22;18610;49.916;8.284;2022-12-17T16:09:59;-2.40;99.90
32097;DHT22;18610;49.916;8.284;2022-12-17T16:12:26;-2.40;99.90
32097;DHT22;18610;49.916;8.284;2022-12-17T16:14:53;-2.40;99.90
32097;DHT22;18610;49.916;8.284;2022-12-17T16:17:19;-2.40;99.90
32097;DHT22;18610;49.916;8.284;2022-12-17T16:19:48;-2.40;99.90
32097;DHT22;18610;49.916;8.284;2022-12-17T16:22:14;-2.40;99.90
32097;DHT22;18610;49.916;8.284;2022-12-17T16:24:41;-2.40;99.90
32097;DHT22;18610;49.916;8.284;2022-12-17T16:27:08;-2.40;99.90
32097;DHT22;18610;49.916;8.284;2022-12-17T16:29:35;-2.40;99.90
32097;DHT22;18610;49.916;8.284;2022-12-17T16:32:02;-2.40;99.90
32097;DHT22;18610;49.916;8.284;2022-12-17T16:34:29;-2.40;99.90
32097;DHT22;18610;49.916;8.284;2022-12-17T16:36:58;-2.50;99.90
32097;DHT22;18610;49.916;8.284;2022-12-17T16:39:26;-2.50;99.90
32097;DHT22;18610;49.916;8.284;2022-12-17T16:41:53;-2.50;99.90
32097;DHT22;18610;49.916;8.284;2022-12-17T16:44:19;-2.50;99.90
32097;DHT22;18610;49.916;8.284;2022-12-17T16:46:46;-2.60;99.90
32097;DHT22;18610;49.916;8.284;2022-12-17T16:49:17;-2.50;99.90
32097;DHT22;18610;49.916;8.284;2022-12-17T16:51:45;-2.50;99.90
32097;DHT22;18610;49.916;8.284;2022-12-17T16:54:16;-2.50;99.90
32097;DHT22;18610;49.916;8.284;2022-12-17T16:56:44;-2.50;99.90
32097;DHT22;18610;49.916;8.284;2022-12-17T16:59:13;-2.60;99.90
32097;DHT22;18610;49.916;8.284;2022-12-17T17:01:41;-2.60;99.90
32097;DHT22;18610;49.916;8.284;2022-12-17T17:04:09;-2.70;99.90
32097;DHT22;18610;49.916;8.284;2022-12-17T17:06:38;-2.70;99.90